createdAt,value
2018-03-09T00:00:17.564Z,7.94
2018-03-09T00:01:17.618Z,7.94
2018-03-09T00:02:17.308Z,7.91
2018-03-09T00:03:17.600Z,7.76
2018-03-09T00:04:17.348Z,7.79
2018-03-09T00:05:17.344Z,7.83
2018-03-09T00:06:17.080Z,7.77
2018-03-09T00:07:17.656Z,7.75
2018-03-09T00:08:17.381Z,7.82
2018-03-09T00:09:17.676Z,7.77
2018-03-09T00:10:17.123Z,7.79
2018-03-09T00:11:17.698Z,7.82
2018-03-09T00:12:17.722Z,7.79
2018-03-09T00:13:17.729Z,7.85
2018-03-09T00:14:17.741Z,7.77
2018-03-09T00:15:17.749Z,7.82
2018-03-09T00:16:17.767Z,7.77
2018-03-09T00:17:17.780Z,7.73
2018-03-09T00:18:17.503Z,7.72
2018-03-09T00:19:17.235Z,7.77
2018-03-09T00:20:17.814Z,7.7
2018-03-09T00:21:17.827Z,7.7
2018-03-09T00:22:17.841Z,7.75
2018-03-09T00:23:17.854Z,7.76
2018-03-09T00:24:17.869Z,7.7
2018-03-09T00:25:17.905Z,7.72
2018-03-09T00:26:17.610Z,7.67
2018-03-09T00:27:17.632Z,7.73
2018-03-09T00:28:17.911Z,7.76
2018-03-09T00:29:17.926Z,7.63
2018-03-09T00:30:17.941Z,7.73
2018-03-09T00:31:17.667Z,7.61
2018-03-09T00:32:17.963Z,7.66
2018-03-09T00:33:17.973Z,7.7
2018-03-09T00:34:17.710Z,7.61
2018-03-09T00:35:17.997Z,7.7
2018-03-09T00:36:17.728Z,7.57
2018-03-09T00:37:17.744Z,7.7
2018-03-09T00:38:18.036Z,7.63
2018-03-09T00:39:18.048Z,7.67
2018-03-09T00:40:18.058Z,7.57
2018-03-09T00:41:18.068Z,7.63
2018-03-09T00:42:18.086Z,7.66
2018-03-09T00:43:18.099Z,7.6
2018-03-09T00:44:17.826Z,7.66
2018-03-09T00:45:17.836Z,7.51
2018-03-09T00:46:18.139Z,7.61
2018-03-09T00:47:18.145Z,7.5
2018-03-09T00:48:17.884Z,7.51
2018-03-09T00:49:17.884Z,7.48
2018-03-09T00:50:17.902Z,7.51
2018-03-09T00:51:18.205Z,7.54
2018-03-09T00:52:17.924Z,7.51
2018-03-09T00:53:17.938Z,7.47
2018-03-09T00:54:18.227Z,7.45
2018-03-09T00:55:18.250Z,7.53
2018-03-09T00:56:17.976Z,7.43
2018-03-09T00:57:18.264Z,7.47
2018-03-09T00:58:18.298Z,7.45
2018-03-09T00:59:18.292Z,7.42
2018-03-09T01:00:18.308Z,7.43
2018-03-09T01:01:18.029Z,7.4
2018-03-09T01:02:18.329Z,7.42
2018-03-09T01:03:18.335Z,7.43
2018-03-09T01:04:18.120Z,7.42
2018-03-09T01:05:18.089Z,7.47
2018-03-09T01:06:18.095Z,7.33
2018-03-09T01:07:18.106Z,7.45
2018-03-09T01:08:18.115Z,7.35
2018-03-09T01:09:18.408Z,7.33
2018-03-09T01:10:18.423Z,7.38
2018-03-09T01:11:18.155Z,7.31
2018-03-09T01:12:18.161Z,7.33
2018-03-09T01:13:18.174Z,7.28
2018-03-09T01:14:18.539Z,7.29
2018-03-09T01:15:18.199Z,7.32
2018-03-09T01:16:18.211Z,7.33
2018-03-09T01:17:18.223Z,7.33
2018-03-09T01:18:18.237Z,7.36
2018-03-09T01:19:18.248Z,7.24
2018-03-09T01:20:18.262Z,7.24
2018-03-09T01:21:18.556Z,7.32
2018-03-09T01:22:17.999Z,7.2
2018-03-09T01:23:18.020Z,7.17
2018-03-09T01:24:18.359Z,7.21
2018-03-09T01:25:18.318Z,7.14
2018-03-09T01:26:18.328Z,7.15
2018-03-09T01:27:18.627Z,7.23
2018-03-09T01:28:18.094Z,7.14
2018-03-09T01:29:18.703Z,7.15
2018-03-09T01:30:18.661Z,7.21
2018-03-09T01:31:18.391Z,7.17
2018-03-09T01:32:18.686Z,7.15
2018-03-09T01:33:18.703Z,7.2
2018-03-09T01:34:18.425Z,7.18
2018-03-09T01:35:18.439Z,7.18
2018-03-09T01:36:18.785Z,7.11
2018-03-09T01:37:18.743Z,7.1
2018-03-09T01:38:18.763Z,7.07
2018-03-09T01:39:18.769Z,7.1
2018-03-09T01:40:18.511Z,7.11
2018-03-09T01:41:18.512Z,7.02
2018-03-09T01:42:18.530Z,7
2018-03-09T01:43:18.810Z,7.14
2018-03-09T01:44:18.876Z,7.11
2018-03-09T01:45:18.556Z,7.07
2018-03-09T01:46:18.285Z,7.03
2018-03-09T01:47:18.580Z,7.11
2018-03-09T01:48:18.876Z,7.05
2018-03-09T01:49:18.889Z,7.05
2018-03-09T01:50:18.900Z,6.95
2018-03-09T01:51:18.915Z,6.92
2018-03-09T01:52:18.960Z,6.99
2018-03-09T01:53:18.931Z,7.02
2018-03-09T01:54:18.716Z,6.89
2018-03-09T01:55:18.393Z,6.89
2018-03-09T01:56:18.687Z,6.87
2018-03-09T01:57:18.702Z,6.92
2018-03-09T01:58:18.707Z,6.97
2018-03-09T01:59:19.013Z,6.87
2018-03-09T02:00:18.737Z,7
2018-03-09T02:01:18.742Z,6.92
2018-03-09T02:02:18.754Z,6.92
2018-03-09T02:03:18.763Z,6.87
2018-03-09T02:04:19.067Z,6.89
2018-03-09T02:05:18.510Z,6.93
2018-03-09T02:06:19.090Z,6.89
2018-03-09T02:07:18.816Z,6.85
2018-03-09T02:08:19.111Z,6.87
2018-03-09T02:09:18.836Z,6.89
2018-03-09T02:10:19.129Z,6.85
2018-03-09T02:11:18.861Z,6.87
2018-03-09T02:12:19.161Z,6.88
2018-03-09T02:13:19.164Z,6.92
2018-03-09T02:14:19.204Z,6.82
2018-03-09T02:15:18.905Z,6.79
2018-03-09T02:16:19.201Z,6.93
2018-03-09T02:17:19.215Z,6.89
2018-03-09T02:18:18.955Z,6.82
2018-03-09T02:19:19.238Z,6.93
2018-03-09T02:20:18.962Z,6.82
2018-03-09T02:21:18.975Z,6.85
2018-03-09T02:22:19.266Z,6.92
2018-03-09T02:23:19.277Z,6.84
2018-03-09T02:24:19.298Z,6.93
2018-03-09T02:25:18.745Z,6.88
2018-03-09T02:26:19.320Z,6.92
2018-03-09T02:27:19.046Z,6.82
2018-03-09T02:28:19.340Z,6.81
2018-03-09T02:29:19.354Z,6.82
2018-03-09T02:30:19.366Z,6.88
2018-03-09T02:31:19.101Z,6.77
2018-03-09T02:32:19.103Z,6.84
2018-03-09T02:33:19.119Z,6.82
2018-03-09T02:34:19.134Z,6.82
2018-03-09T02:35:19.167Z,6.74
2018-03-09T02:36:19.156Z,6.81
2018-03-09T02:37:18.881Z,6.79
2018-03-09T02:38:19.457Z,6.82
2018-03-09T02:39:19.184Z,6.84
2018-03-09T02:40:19.505Z,6.82
2018-03-09T02:41:19.496Z,6.79
2018-03-09T02:42:19.542Z,6.77
2018-03-09T02:43:19.516Z,6.75
2018-03-09T02:44:19.524Z,6.77
2018-03-09T02:45:19.556Z,6.75
2018-03-09T02:46:19.555Z,6.77
2018-03-09T02:47:19.696Z,6.75
2018-03-09T02:48:19.580Z,6.75
2018-03-09T02:49:19.586Z,6.7
2018-03-09T02:50:19.595Z,6.69
2018-03-09T02:51:19.328Z,6.7
2018-03-09T02:52:19.339Z,6.64
2018-03-09T02:53:19.346Z,6.62
2018-03-09T02:54:19.352Z,6.72
2018-03-09T02:55:19.369Z,6.72
2018-03-09T02:56:19.713Z,6.59
2018-03-09T02:57:19.391Z,6.75
2018-03-09T02:58:19.405Z,6.62
2018-03-09T02:59:19.419Z,6.69
2018-03-09T03:00:19.429Z,6.62
2018-03-09T03:01:19.153Z,6.59
2018-03-09T03:02:19.448Z,6.7
2018-03-09T03:03:19.464Z,6.72
2018-03-09T03:04:19.472Z,6.62
2018-03-09T03:05:19.769Z,6.62
2018-03-09T03:06:19.494Z,6.6
2018-03-09T03:07:19.504Z,6.7
2018-03-09T03:08:19.570Z,6.6
2018-03-09T03:09:19.814Z,6.57
2018-03-09T03:10:19.255Z,6.62
2018-03-09T03:11:19.836Z,6.62
2018-03-09T03:12:19.843Z,6.59
2018-03-09T03:13:19.573Z,6.54
2018-03-09T03:14:19.304Z,6.6
2018-03-09T03:15:19.597Z,6.59
2018-03-09T03:16:19.890Z,6.67
2018-03-09T03:17:20.026Z,6.63
2018-03-09T03:18:19.630Z,6.57
2018-03-09T03:19:19.650Z,6.63
2018-03-09T03:20:19.937Z,6.59
2018-03-09T03:21:19.942Z,6.52
2018-03-09T03:22:19.677Z,6.57
2018-03-09T03:23:19.968Z,6.57
2018-03-09T03:24:19.698Z,6.59
2018-03-09T03:25:19.998Z,6.49
2018-03-09T03:26:20.008Z,6.62
2018-03-09T03:27:19.729Z,6.54
2018-03-09T03:28:20.028Z,6.57
2018-03-09T03:29:19.472Z,6.57
2018-03-09T03:30:19.770Z,6.6
2018-03-09T03:31:20.064Z,6.54
2018-03-09T03:32:19.786Z,6.52
2018-03-09T03:33:19.514Z,6.52
2018-03-09T03:34:19.808Z,6.56
2018-03-09T03:35:20.108Z,6.59
2018-03-09T03:36:20.114Z,6.54
2018-03-09T03:37:19.564Z,6.49
2018-03-09T03:38:20.141Z,6.52
2018-03-09T03:39:19.872Z,6.51
2018-03-09T03:40:19.881Z,6.51
2018-03-09T03:41:20.175Z,6.59
2018-03-09T03:42:20.179Z,6.54
2018-03-09T03:43:20.194Z,6.57
2018-03-09T03:44:19.952Z,6.51
2018-03-09T03:45:19.935Z,6.54
2018-03-09T03:46:19.946Z,6.52
2018-03-09T03:47:19.959Z,6.45
2018-03-09T03:48:19.969Z,6.52
2018-03-09T03:49:19.979Z,6.54
2018-03-09T03:50:19.990Z,6.52
2018-03-09T03:51:20.286Z,6.51
2018-03-09T03:52:20.298Z,6.49
2018-03-09T03:53:20.022Z,6.48
2018-03-09T03:54:19.757Z,6.51
2018-03-09T03:55:20.049Z,6.49
2018-03-09T03:56:20.347Z,6.48
2018-03-09T03:57:20.069Z,6.51
2018-03-09T03:58:20.368Z,6.49
2018-03-09T03:59:20.089Z,6.46
2018-03-09T04:00:20.387Z,6.52
2018-03-09T04:01:20.394Z,6.49
2018-03-09T04:02:20.415Z,6.46
2018-03-09T04:03:20.418Z,6.49
2018-03-09T04:04:20.147Z,6.48
2018-03-09T04:05:20.500Z,6.42
2018-03-09T04:06:20.468Z,6.45
2018-03-09T04:07:20.471Z,6.42
2018-03-09T04:08:20.475Z,6.46
2018-03-09T04:09:20.491Z,6.46
2018-03-09T04:10:20.498Z,6.33
2018-03-09T04:11:20.225Z,6.35
2018-03-09T04:12:20.516Z,6.33
2018-03-09T04:13:20.528Z,6.36
2018-03-09T04:14:20.537Z,6.42
2018-03-09T04:15:20.269Z,6.33
2018-03-09T04:16:20.565Z,6.31
2018-03-09T04:17:20.572Z,6.39
2018-03-09T04:18:20.306Z,6.36
2018-03-09T04:19:20.596Z,6.33
2018-03-09T04:20:20.657Z,6.35
2018-03-09T04:21:20.335Z,6.35
2018-03-09T04:22:20.344Z,6.36
2018-03-09T04:23:20.641Z,6.41
2018-03-09T04:24:20.371Z,6.38
2018-03-09T04:25:20.666Z,6.31
2018-03-09T04:26:20.681Z,6.33
2018-03-09T04:27:20.694Z,6.35
2018-03-09T04:28:20.128Z,6.36
2018-03-09T04:29:20.712Z,6.31
2018-03-09T04:30:20.817Z,6.3
2018-03-09T04:31:20.443Z,6.33
2018-03-09T04:32:20.752Z,6.33
2018-03-09T04:33:20.763Z,6.3
2018-03-09T04:34:20.768Z,6.27
2018-03-09T04:35:20.489Z,6.27
2018-03-09T04:36:20.798Z,6.22
2018-03-09T04:37:20.798Z,6.31
2018-03-09T04:38:20.809Z,6.31
2018-03-09T04:39:20.536Z,6.31
2018-03-09T04:40:20.872Z,6.27
2018-03-09T04:41:20.556Z,6.35
2018-03-09T04:42:20.851Z,6.2
2018-03-09T04:43:20.577Z,6.33
2018-03-09T04:44:20.873Z,6.3
2018-03-09T04:45:20.596Z,6.22
2018-03-09T04:46:20.905Z,6.24
2018-03-09T04:47:20.912Z,6.31
2018-03-09T04:48:20.634Z,6.27
2018-03-09T04:49:20.646Z,6.2
2018-03-09T04:50:21.011Z,6.26
2018-03-09T04:51:20.665Z,6.27
2018-03-09T04:52:20.677Z,6.28
2018-03-09T04:53:20.687Z,6.26
2018-03-09T04:54:20.713Z,6.27
2018-03-09T04:55:20.990Z,6.16
2018-03-09T04:56:21.009Z,6.2
2018-03-09T04:57:21.016Z,6.16
2018-03-09T04:58:21.025Z,6.22
2018-03-09T04:59:21.035Z,6.22
2018-03-09T05:00:20.766Z,6.08
2018-03-09T05:01:20.491Z,6.2
2018-03-09T05:02:20.785Z,6.09
2018-03-09T05:03:20.516Z,6.17
2018-03-09T05:04:21.097Z,6.16
2018-03-09T05:05:21.099Z,6.16
2018-03-09T05:06:21.118Z,6.12
2018-03-09T05:07:21.123Z,6.14
2018-03-09T05:08:21.136Z,6.16
2018-03-09T05:09:20.866Z,6.22
2018-03-09T05:10:21.386Z,6.17
2018-03-09T05:11:20.886Z,6.09
2018-03-09T05:12:21.176Z,6.11
2018-03-09T05:13:20.903Z,6.14
2018-03-09T05:14:21.203Z,6.16
2018-03-09T05:15:21.216Z,6.09
2018-03-09T05:16:20.938Z,6.12
2018-03-09T05:17:21.238Z,6.14
2018-03-09T05:18:21.255Z,6.12
2018-03-09T05:19:21.259Z,6.16
2018-03-09T05:20:20.993Z,6.11
2018-03-09T05:21:21.276Z,6.17
2018-03-09T05:22:20.849Z,6.09
2018-03-09T05:23:21.014Z,6.14
2018-03-09T05:24:21.026Z,6.16
2018-03-09T05:25:21.041Z,6.09
2018-03-09T05:26:20.765Z,6.14
2018-03-09T05:27:21.060Z,6.14
2018-03-09T05:28:21.363Z,6.11
2018-03-09T05:29:21.369Z,6.11
2018-03-09T05:30:21.097Z,6.11
2018-03-09T05:31:21.383Z,6.14
2018-03-09T05:32:21.111Z,6.19
2018-03-09T05:33:21.127Z,6.17
2018-03-09T05:34:21.423Z,6.09
2018-03-09T05:35:21.146Z,6.11
2018-03-09T05:36:21.530Z,6.17
2018-03-09T05:37:20.887Z,6.07
2018-03-09T05:38:20.916Z,6.12
2018-03-09T05:39:20.907Z,6.09
2018-03-09T05:40:21.497Z,6.07
2018-03-09T05:41:21.549Z,6.05
2018-03-09T05:42:21.505Z,6.02
2018-03-09T05:43:21.245Z,6.01
2018-03-09T05:44:21.251Z,6.12
2018-03-09T05:45:21.253Z,6.05
2018-03-09T05:46:21.265Z,6.01
2018-03-09T05:47:21.284Z,6.05
2018-03-09T05:48:21.002Z,6.04
2018-03-09T05:49:21.657Z,6.05
2018-03-09T05:50:21.027Z,6.12
2018-03-09T05:51:21.090Z,6.08
2018-03-09T05:52:21.617Z,6.02
2018-03-09T05:53:21.740Z,5.99
2018-03-09T05:54:21.645Z,6.08
2018-03-09T05:55:21.365Z,6.05
2018-03-09T05:56:21.379Z,5.99
2018-03-09T05:57:21.666Z,6.01
2018-03-09T05:58:21.680Z,6.05
2018-03-09T05:59:21.693Z,5.94
2018-03-09T06:00:21.442Z,6.05
2018-03-09T06:01:21.428Z,6.04
2018-03-09T06:02:21.732Z,6.05
2018-03-09T06:03:21.449Z,6.08
2018-03-09T06:04:21.746Z,6.11
2018-03-09T06:05:21.752Z,5.99
2018-03-09T06:06:21.489Z,5.91
2018-03-09T06:07:21.210Z,5.99
2018-03-09T06:08:21.793Z,5.99
2018-03-09T06:09:21.515Z,5.98
2018-03-09T06:10:21.243Z,6.08
2018-03-09T06:11:21.534Z,6.01
2018-03-09T06:12:21.828Z,6.07
2018-03-09T06:13:21.561Z,6.05
2018-03-09T06:14:21.854Z,6.05
2018-03-09T06:15:21.863Z,6.01
2018-03-09T06:16:21.925Z,6.02
2018-03-09T06:17:21.319Z,6.07
2018-03-09T06:18:21.612Z,6.01
2018-03-09T06:19:21.631Z,6.05
2018-03-09T06:20:21.917Z,6.07
2018-03-09T06:21:21.695Z,6.02
2018-03-09T06:22:21.943Z,6.22
2018-03-09T06:23:21.953Z,6.16
2018-03-09T06:24:21.678Z,6.11
2018-03-09T06:25:21.967Z,6.08
2018-03-09T06:26:21.984Z,6.17
2018-03-09T06:27:21.996Z,6.24
2018-03-09T06:28:22.000Z,6.19
2018-03-09T06:29:22.016Z,6.24
2018-03-09T06:30:21.756Z,6.26
2018-03-09T06:31:21.470Z,6.28
2018-03-09T06:32:21.800Z,6.22
2018-03-09T06:33:21.800Z,6.31
2018-03-09T06:34:21.501Z,6.27
2018-03-09T06:35:22.090Z,6.28
2018-03-09T06:36:21.522Z,6.33
2018-03-09T06:37:21.818Z,6.3
2018-03-09T06:38:22.119Z,6.27
2018-03-09T06:39:22.120Z,6.33
2018-03-09T06:40:21.569Z,6.36
2018-03-09T06:41:22.141Z,6.41
2018-03-09T06:42:22.153Z,6.33
2018-03-09T06:43:22.161Z,6.38
2018-03-09T06:44:22.179Z,6.33
2018-03-09T06:45:22.053Z,6.3
2018-03-09T06:46:21.911Z,6.52
2018-03-09T06:47:22.214Z,6.45
2018-03-09T06:48:21.937Z,6.49
2018-03-09T06:49:22.230Z,6.48
2018-03-09T06:50:22.240Z,6.56
2018-03-09T06:51:21.969Z,6.48
2018-03-09T06:52:22.326Z,6.57
2018-03-09T06:53:22.274Z,6.51
2018-03-09T06:54:22.281Z,6.52
2018-03-09T06:55:22.009Z,6.57
2018-03-09T06:56:21.740Z,6.51
2018-03-09T06:57:22.369Z,6.56
2018-03-09T06:58:22.326Z,6.6
2018-03-09T06:59:21.772Z,6.56
2018-03-09T07:00:22.351Z,6.66
2018-03-09T07:01:22.365Z,6.67
2018-03-09T07:02:22.369Z,6.72
2018-03-09T07:03:22.099Z,6.59
2018-03-09T07:04:22.395Z,6.69
2018-03-09T07:05:22.407Z,6.67
2018-03-09T07:06:22.414Z,6.72
2018-03-09T07:07:22.199Z,6.67
2018-03-09T07:08:22.440Z,6.78
2018-03-09T07:09:22.164Z,6.77
2018-03-09T07:10:22.175Z,6.84
2018-03-09T07:11:22.466Z,6.87
2018-03-09T07:12:22.530Z,6.87
2018-03-09T07:13:22.210Z,6.97
2018-03-09T07:14:22.500Z,6.92
2018-03-09T07:15:21.945Z,6.95
2018-03-09T07:16:22.520Z,7.06
2018-03-09T07:17:22.249Z,7.06
2018-03-09T07:18:22.545Z,7.06
2018-03-09T07:19:22.553Z,7.2
2018-03-09T07:20:22.571Z,7.17
2018-03-09T07:21:22.579Z,7.17
2018-03-09T07:22:22.640Z,7.17
2018-03-09T07:23:22.034Z,7.28
2018-03-09T07:24:22.326Z,7.31
2018-03-09T07:25:22.339Z,7.29
2018-03-09T07:26:22.631Z,7.33
2018-03-09T07:27:22.646Z,7.36
2018-03-09T07:28:22.653Z,7.51
2018-03-09T07:29:22.679Z,7.45
2018-03-09T07:30:22.393Z,7.43
2018-03-09T07:31:22.401Z,7.42
2018-03-09T07:32:22.748Z,7.48
2018-03-09T07:33:22.715Z,7.57
2018-03-09T07:34:22.445Z,7.63
2018-03-09T07:35:22.447Z,7.63
2018-03-09T07:36:22.740Z,7.72
2018-03-09T07:37:22.521Z,7.72
2018-03-09T07:38:22.773Z,7.72
2018-03-09T07:39:22.497Z,7.76
2018-03-09T07:40:22.782Z,7.76
2018-03-09T07:41:22.801Z,7.8
2018-03-09T07:42:22.579Z,7.83
2018-03-09T07:43:22.831Z,7.85
2018-03-09T07:44:22.834Z,7.91
2018-03-09T07:45:22.845Z,7.93
2018-03-09T07:46:22.576Z,7.95
2018-03-09T07:47:22.579Z,8.01
2018-03-09T07:48:22.592Z,8
2018-03-09T07:49:22.601Z,8.09
2018-03-09T07:50:22.901Z,8.03
2018-03-09T07:51:22.913Z,7.95
2018-03-09T07:52:22.938Z,8.01
2018-03-09T07:53:22.932Z,8.06
2018-03-09T07:54:22.954Z,8.15
2018-03-09T07:55:22.954Z,8.09
2018-03-09T07:56:22.685Z,8.12
2018-03-09T07:57:22.415Z,8.08
2018-03-09T07:58:22.707Z,8.09
2018-03-09T07:59:23.008Z,8.1
2018-03-09T08:00:22.731Z,8.1
2018-03-09T08:01:22.740Z,8.16
2018-03-09T08:02:22.751Z,8.06
2018-03-09T08:03:23.050Z,8.06
2018-03-09T08:04:23.061Z,8.09
2018-03-09T08:05:23.066Z,8.15
2018-03-09T08:06:23.075Z,8.13
2018-03-09T08:07:23.205Z,8.16
2018-03-09T08:08:23.107Z,8.15
2018-03-09T08:09:22.834Z,8.15
2018-03-09T08:10:22.848Z,8.19
2018-03-09T08:11:23.144Z,8.2
2018-03-09T08:12:23.155Z,8.19
2018-03-09T08:13:23.162Z,8.18
2018-03-09T08:14:23.178Z,8.13
2018-03-09T08:15:22.903Z,8.2
2018-03-09T08:16:22.920Z,8.26
2018-03-09T08:17:23.248Z,8.23
2018-03-09T08:18:23.275Z,8.3
2018-03-09T08:19:22.947Z,8.28
2018-03-09T08:20:22.963Z,8.23
2018-03-09T08:21:23.659Z,8.2
2018-03-09T08:22:22.983Z,8.23
2018-03-09T08:23:23.013Z,8.2
2018-03-09T08:24:23.014Z,8.34
2018-03-09T08:25:23.303Z,8.36
2018-03-09T08:26:23.316Z,8.33
2018-03-09T08:27:23.043Z,8.31
2018-03-09T08:28:23.343Z,8.37
2018-03-09T08:29:23.357Z,8.37
2018-03-09T08:30:23.553Z,8.49
2018-03-09T08:31:23.092Z,8.46
2018-03-09T08:32:23.099Z,8.45
2018-03-09T08:33:22.830Z,8.36
2018-03-09T08:34:23.122Z,8.48
2018-03-09T08:35:23.134Z,8.45
2018-03-09T08:36:23.431Z,8.42
2018-03-09T08:37:23.459Z,8.48
2018-03-09T08:38:23.461Z,8.44
2018-03-09T08:39:23.185Z,8.52
2018-03-09T08:40:23.258Z,8.46
2018-03-09T08:41:22.927Z,8.51
2018-03-09T08:42:22.936Z,8.56
2018-03-09T08:43:23.232Z,8.51
2018-03-09T08:44:23.243Z,8.6
2018-03-09T08:45:23.536Z,8.61
2018-03-09T08:46:22.992Z,8.66
2018-03-09T08:47:23.564Z,8.64
2018-03-09T08:48:23.294Z,8.61
2018-03-09T08:49:23.299Z,8.6
2018-03-09T08:50:23.602Z,8.63
2018-03-09T08:51:23.325Z,8.67
2018-03-09T08:52:23.360Z,8.66
2018-03-09T08:53:23.643Z,8.7
2018-03-09T08:54:23.648Z,8.7
2018-03-09T08:55:23.659Z,8.7
2018-03-09T08:56:23.668Z,8.69
2018-03-09T08:57:23.679Z,8.82
2018-03-09T08:58:23.412Z,8.81
2018-03-09T08:59:23.702Z,8.78
2018-03-09T09:00:23.433Z,8.81
2018-03-09T09:01:23.754Z,8.78
2018-03-09T09:02:23.457Z,8.74
2018-03-09T09:03:23.917Z,8.94
2018-03-09T09:04:23.763Z,8.92
2018-03-09T09:05:23.775Z,8.85
2018-03-09T09:06:23.503Z,8.85
2018-03-09T09:07:23.581Z,8.95
2018-03-09T09:08:23.817Z,8.89
2018-03-09T09:09:23.823Z,8.95
2018-03-09T09:10:23.651Z,9.02
2018-03-09T09:11:23.562Z,9
2018-03-09T09:12:23.867Z,8.97
2018-03-09T09:13:23.968Z,9.02
2018-03-09T09:14:23.880Z,9.04
2018-03-09T09:15:23.627Z,9
2018-03-09T09:16:23.907Z,9.03
2018-03-09T09:17:23.355Z,9
2018-03-09T09:18:23.931Z,9.06
2018-03-09T09:19:23.941Z,9.03
2018-03-09T09:20:23.391Z,8.99
2018-03-09T09:21:23.976Z,9.02
2018-03-09T09:22:23.698Z,8.99
2018-03-09T09:23:23.998Z,8.99
2018-03-09T09:24:24.006Z,9.02
2018-03-09T09:25:24.014Z,8.95
2018-03-09T09:26:24.066Z,9.03
2018-03-09T09:27:24.045Z,9
2018-03-09T09:28:24.106Z,8.99
2018-03-09T09:29:24.136Z,9
2018-03-09T09:30:23.997Z,9.02
2018-03-09T09:31:23.813Z,9.03
2018-03-09T09:32:24.102Z,8.97
2018-03-09T09:33:24.165Z,9
2018-03-09T09:34:23.849Z,9.03
2018-03-09T09:35:24.141Z,9.11
2018-03-09T09:36:23.586Z,9.11
2018-03-09T09:37:24.167Z,9.06
2018-03-09T09:38:23.894Z,9.06
2018-03-09T09:39:24.196Z,9.11
2018-03-09T09:40:24.010Z,9.1
2018-03-09T09:41:24.211Z,9.18
2018-03-09T09:42:23.948Z,9.21
2018-03-09T09:43:24.243Z,9.26
2018-03-09T09:44:24.302Z,9.25
2018-03-09T09:45:24.267Z,9.28
2018-03-09T09:46:24.276Z,9.31
2018-03-09T09:47:24.291Z,9.29
2018-03-09T09:48:24.024Z,9.34
2018-03-09T09:49:24.312Z,9.39
2018-03-09T09:50:24.046Z,9.36
2018-03-09T09:51:24.266Z,9.46
2018-03-09T09:52:24.356Z,9.4
2018-03-09T09:53:24.503Z,9.44
2018-03-09T09:54:24.191Z,9.44
2018-03-09T09:55:24.117Z,9.43
2018-03-09T09:56:24.413Z,9.43
2018-03-09T09:57:24.136Z,9.5
2018-03-09T09:58:24.435Z,9.51
2018-03-09T09:59:23.887Z,9.61
2018-03-09T10:00:24.452Z,9.56
2018-03-09T10:01:24.182Z,9.56
2018-03-09T10:02:24.484Z,9.58
2018-03-09T10:03:24.263Z,9.72
2018-03-09T10:04:24.237Z,9.66
2018-03-09T10:05:24.514Z,9.66
2018-03-09T10:06:24.247Z,9.83
2018-03-09T10:07:24.262Z,9.77
2018-03-09T10:08:24.269Z,9.77
2018-03-09T10:09:23.996Z,9.82
2018-03-09T10:10:24.307Z,9.8
2018-03-09T10:11:24.304Z,9.76
2018-03-09T10:12:24.320Z,9.79
2018-03-09T10:13:24.669Z,9.82
2018-03-09T10:14:24.361Z,9.82
2018-03-09T10:15:24.357Z,9.8
2018-03-09T10:16:24.417Z,9.87
2018-03-09T10:17:24.671Z,9.91
2018-03-09T10:18:24.679Z,9.91
2018-03-09T10:19:24.689Z,9.97
2018-03-09T10:20:24.706Z,9.97
2018-03-09T10:21:24.727Z,9.95
2018-03-09T10:22:24.728Z,9.99
2018-03-09T10:23:24.744Z,10.09
2018-03-09T10:24:24.760Z,10.12
2018-03-09T10:25:24.769Z,10.05
2018-03-09T10:26:24.794Z,10.19
2018-03-09T10:27:24.564Z,10.1
2018-03-09T10:28:24.858Z,10.13
2018-03-09T10:29:24.537Z,10.13
2018-03-09T10:30:24.555Z,10.17
2018-03-09T10:31:24.564Z,10.19
2018-03-09T10:32:24.579Z,10.28
2018-03-09T10:33:24.920Z,10.28
2018-03-09T10:34:24.602Z,10.25
2018-03-09T10:35:24.899Z,10.37
2018-03-09T10:36:24.629Z,10.33
2018-03-09T10:37:24.932Z,10.3
2018-03-09T10:38:24.994Z,10.35
2018-03-09T10:39:24.668Z,10.31
2018-03-09T10:40:24.691Z,10.4
2018-03-09T10:41:24.982Z,10.41
2018-03-09T10:42:24.997Z,10.41
2018-03-09T10:43:25.053Z,10.42
2018-03-09T10:44:25.021Z,10.49
2018-03-09T10:45:24.749Z,10.56
2018-03-09T10:46:24.478Z,10.49
2018-03-09T10:47:24.491Z,10.6
2018-03-09T10:48:24.504Z,10.63
2018-03-09T10:49:24.801Z,10.69
2018-03-09T10:50:25.104Z,10.64
2018-03-09T10:51:24.548Z,10.67
2018-03-09T10:52:24.847Z,10.71
2018-03-09T10:53:25.133Z,10.79
2018-03-09T10:54:24.867Z,10.76
2018-03-09T10:55:24.880Z,10.76
2018-03-09T10:56:25.176Z,10.79
2018-03-09T10:57:25.187Z,10.92
2018-03-09T10:58:25.210Z,10.9
2018-03-09T10:59:25.214Z,10.87
2018-03-09T11:00:25.540Z,10.93
2018-03-09T11:01:24.964Z,10.87
2018-03-09T11:02:25.256Z,10.94
2018-03-09T11:03:25.271Z,11.05
2018-03-09T11:04:25.451Z,11.07
2018-03-09T11:05:25.299Z,11.05
2018-03-09T11:06:25.306Z,11.18
2018-03-09T11:07:25.324Z,11.11
2018-03-09T11:08:25.344Z,11.18
2018-03-09T11:09:25.360Z,11.23
2018-03-09T11:10:25.083Z,11.26
2018-03-09T11:11:25.376Z,11.23
2018-03-09T11:12:25.394Z,11.3
2018-03-09T11:13:25.121Z,11.25
2018-03-09T11:14:25.140Z,11.36
2018-03-09T11:15:25.431Z,11.35
2018-03-09T11:16:25.451Z,11.37
2018-03-09T11:17:25.706Z,11.4
2018-03-09T11:18:25.480Z,11.3
2018-03-09T11:19:25.220Z,11.45
2018-03-09T11:20:25.504Z,11.51
2018-03-09T11:21:25.237Z,11.55
2018-03-09T11:22:25.248Z,11.51
2018-03-09T11:23:25.264Z,11.52
2018-03-09T11:24:25.558Z,11.62
2018-03-09T11:25:25.579Z,11.63
2018-03-09T11:26:25.311Z,11.65
2018-03-09T11:27:25.038Z,11.7
2018-03-09T11:28:25.639Z,11.7
2018-03-09T11:29:25.354Z,11.75
2018-03-09T11:30:25.366Z,11.75
2018-03-09T11:31:25.378Z,11.83
2018-03-09T11:32:25.480Z,11.7
2018-03-09T11:33:25.683Z,11.86
2018-03-09T11:34:25.702Z,11.81
2018-03-09T11:35:25.761Z,11.84
2018-03-09T11:36:25.445Z,11.87
2018-03-09T11:37:25.181Z,11.88
2018-03-09T11:38:25.753Z,12.04
2018-03-09T11:39:25.775Z,11.99
2018-03-09T11:40:25.507Z,12.07
2018-03-09T11:41:25.800Z,12.1
2018-03-09T11:42:25.538Z,12.04
2018-03-09T11:43:25.263Z,12.2
2018-03-09T11:44:25.564Z,12.13
2018-03-09T11:45:25.856Z,12.18
2018-03-09T11:46:25.871Z,12.22
2018-03-09T11:47:25.317Z,12.25
2018-03-09T11:48:25.616Z,12.24
2018-03-09T11:49:25.922Z,12.27
2018-03-09T11:50:25.733Z,12.25
2018-03-09T11:51:25.944Z,12.42
2018-03-09T11:52:25.672Z,12.39
2018-03-09T11:53:25.981Z,12.4
2018-03-09T11:54:25.995Z,12.4
2018-03-09T11:55:25.720Z,12.42
2018-03-09T11:56:26.015Z,12.42
2018-03-09T11:57:26.030Z,12.53
2018-03-09T11:58:26.049Z,12.42
2018-03-09T11:59:25.776Z,12.46
2018-03-09T12:00:25.795Z,12.49
2018-03-09T12:01:26.087Z,12.68
2018-03-09T12:02:26.176Z,12.64
2018-03-09T12:03:26.118Z,12.62
2018-03-09T12:04:26.142Z,12.64
2018-03-09T12:05:26.217Z,12.72
2018-03-09T12:06:26.165Z,12.73
2018-03-09T12:07:25.892Z,12.7
2018-03-09T12:08:26.252Z,12.83
2018-03-09T12:09:26.216Z,12.82
2018-03-09T12:10:26.224Z,12.85
2018-03-09T12:11:26.236Z,12.85
2018-03-09T12:12:26.255Z,12.94
2018-03-09T12:13:26.272Z,12.91
2018-03-09T12:14:26.280Z,12.94
2018-03-09T12:15:26.312Z,13.03
2018-03-09T12:16:26.103Z,13.03
2018-03-09T12:17:26.047Z,12.97
2018-03-09T12:18:26.342Z,13.05
2018-03-09T12:19:26.355Z,13.05
2018-03-09T12:20:26.087Z,13.08
2018-03-09T12:21:26.114Z,13.09
2018-03-09T12:22:26.121Z,13.16
2018-03-09T12:23:26.422Z,13.22
2018-03-09T12:24:26.147Z,13.18
2018-03-09T12:25:26.167Z,13.19
2018-03-09T12:26:26.463Z,13.15
2018-03-09T12:27:26.479Z,13.31
2018-03-09T12:28:26.209Z,13.31
2018-03-09T12:29:26.505Z,13.23
2018-03-09T12:30:26.525Z,13.27
2018-03-09T12:31:26.256Z,13.22
2018-03-09T12:32:26.568Z,13.23
2018-03-09T12:33:26.288Z,13.2
2018-03-09T12:34:26.308Z,13.33
2018-03-09T12:35:26.319Z,13.33
2018-03-09T12:36:26.612Z,13.25
2018-03-09T12:37:26.349Z,13.33
2018-03-09T12:38:26.647Z,13.35
2018-03-09T12:39:26.380Z,13.38
2018-03-09T12:40:26.677Z,13.37
2018-03-09T12:41:26.408Z,13.44
2018-03-09T12:42:26.427Z,13.49
2018-03-09T12:43:26.160Z,13.47
2018-03-09T12:44:26.792Z,13.5
2018-03-09T12:45:26.806Z,13.49
2018-03-09T12:46:26.563Z,13.6
2018-03-09T12:47:26.786Z,13.59
2018-03-09T12:48:26.520Z,13.57
2018-03-09T12:49:26.828Z,13.67
2018-03-09T12:50:26.833Z,13.63
2018-03-09T12:51:26.845Z,13.63
2018-03-09T12:52:26.579Z,13.65
2018-03-09T12:53:26.325Z,13.62
2018-03-09T12:54:26.617Z,13.68
2018-03-09T12:55:26.630Z,13.7
2018-03-09T12:56:26.928Z,13.7
2018-03-09T12:57:26.940Z,13.79
2018-03-09T12:58:26.678Z,13.81
2018-03-09T12:59:26.693Z,13.74
2018-03-09T13:00:26.993Z,13.78
2018-03-09T13:01:27.005Z,13.77
2018-03-09T13:02:27.027Z,13.78
2018-03-09T13:03:27.039Z,13.79
2018-03-09T13:04:41.633Z,13.78
2018-03-09T13:05:26.867Z,13.78
2018-03-09T13:06:27.088Z,13.92
2018-03-09T13:07:27.203Z,13.89
2018-03-09T13:08:26.834Z,13.92
2018-03-09T13:09:27.182Z,13.93
2018-03-09T13:10:27.146Z,13.92
2018-03-09T13:11:26.932Z,13.87
2018-03-09T13:12:27.183Z,13.92
2018-03-09T13:13:27.197Z,14.03
2018-03-09T13:14:26.980Z,14.05
2018-03-09T13:15:26.947Z,14.03